createdAt,value
2018-11-26T04:56:17.936Z,2.20
2018-11-26T04:58:45.554Z,2.57
2018-11-26T05:01:13.145Z,3.10
2018-11-26T05:03:40.775Z,1.53
2018-11-26T05:06:08.331Z,3.97
2018-11-26T05:08:35.900Z,2.50
2018-11-26T05:11:03.530Z,3.20
2018-11-26T05:13:31.119Z,2.77
2018-11-26T05:15:58.740Z,3.07
2018-11-26T05:18:26.864Z,2.57
2018-11-26T05:20:54.760Z,2.20
2018-11-26T05:23:22.362Z,2.80
2018-11-26T05:25:50.055Z,3.03
2018-11-26T05:28:17.684Z,2.60
2018-11-26T05:30:45.283Z,2.73
2018-11-26T05:33:12.914Z,2.13
2018-11-26T05:35:40.550Z,2.40
2018-11-26T05:38:08.107Z,2.37
2018-11-26T05:40:35.724Z,2.20
2018-11-26T05:43:03.303Z,2.30
2018-11-26T05:45:30.871Z,2.13
2018-11-26T05:47:58.519Z,2.97
2018-11-26T05:50:26.035Z,2.87
2018-11-26T05:52:53.656Z,3.00
2018-11-26T05:55:21.352Z,2.60
2018-11-26T05:57:48.936Z,2.67
2018-11-26T06:00:17.991Z,3.13
2018-11-26T06:02:45.636Z,2.40
2018-11-26T06:05:13.322Z,2.73
2018-11-26T06:07:40.928Z,2.77
2018-11-26T06:10:10.199Z,2.50
2018-11-26T06:12:37.895Z,2.17
2018-11-26T06:15:07.357Z,2.73
2018-11-26T06:17:34.916Z,2.03
2018-11-26T06:20:02.717Z,2.93
2018-11-26T06:22:30.272Z,2.87
2018-11-26T06:24:57.842Z,2.90
2018-11-26T06:27:25.464Z,3.30
2018-11-26T06:29:53.065Z,3.00
2018-11-26T06:32:23.428Z,2.70
2018-11-26T06:34:50.732Z,3.20
2018-11-26T06:37:18.510Z,3.07
2018-11-26T06:39:46.138Z,2.30
2018-11-26T06:42:13.727Z,2.17
2018-11-26T06:44:41.385Z,2.70
2018-11-26T06:47:09.041Z,1.77
2018-11-26T06:49:36.880Z,2.00
2018-11-26T06:52:04.607Z,1.90
2018-11-26T06:54:32.379Z,2.30
2018-11-26T06:57:00.200Z,2.33
2018-11-26T06:59:27.764Z,3.20
2018-11-26T07:01:55.362Z,2.30
2018-11-26T07:04:22.920Z,3.00
2018-11-26T07:06:50.535Z,3.00
2018-11-26T07:09:18.318Z,2.77
2018-11-26T07:11:45.988Z,2.53
2018-11-26T07:14:13.541Z,1.97
2018-11-26T07:16:41.270Z,2.03
2018-11-26T07:19:08.859Z,2.33
2018-11-26T07:21:36.619Z,2.30
2018-11-26T07:24:04.184Z,2.17
2018-11-26T07:26:31.829Z,3.13
2018-11-26T07:28:59.614Z,2.60
2018-11-26T07:31:27.203Z,2.40
2018-11-26T07:33:54.966Z,2.50
2018-11-26T07:36:22.565Z,2.50
2018-11-26T07:38:50.250Z,2.33
2018-11-26T07:41:17.821Z,2.57
2018-11-26T07:43:45.485Z,1.80
2018-11-26T07:46:13.182Z,2.40
2018-11-26T07:48:41.183Z,2.13
2018-11-26T07:51:09.215Z,1.77
2018-11-26T07:53:37.350Z,1.50
2018-11-26T07:56:05.060Z,1.63
2018-11-26T07:58:33.046Z,1.63
2018-11-26T08:01:00.764Z,1.60
2018-11-26T08:03:28.713Z,1.40
2018-11-26T08:05:56.402Z,2.00
2018-11-26T08:08:24.176Z,1.87
2018-11-26T08:10:52.045Z,1.70
2018-11-26T08:13:19.885Z,2.03
2018-11-26T08:15:48.046Z,2.10
2018-11-26T08:18:17.918Z,1.63
2018-11-26T08:20:46.809Z,1.60
2018-11-26T08:23:14.422Z,2.90
2018-11-26T08:25:42.054Z,2.67
2018-11-26T08:28:09.689Z,1.70
2018-11-26T08:30:37.676Z,1.70
2018-11-26T08:33:06.069Z,2.10
2018-11-26T08:35:33.773Z,1.93
2018-11-26T08:38:06.927Z,2.20
2018-11-26T08:40:39.702Z,2.00
2018-11-26T08:43:07.509Z,1.80
2018-11-26T08:45:37.018Z,1.43
2018-11-26T08:48:06.132Z,1.37
2018-11-26T08:50:33.831Z,1.23
2018-11-26T08:53:01.671Z,1.30
2018-11-26T08:55:29.300Z,1.60
2018-11-26T08:57:56.951Z,1.90
2018-11-26T09:00:24.684Z,1.60
2018-11-26T09:03:00.602Z,1.70
2018-11-26T09:05:33.782Z,2.20
2018-11-26T09:08:01.456Z,1.80
2018-11-26T09:10:29.044Z,2.37
2018-11-26T09:12:56.624Z,1.60
2018-11-26T09:15:24.188Z,1.70
2018-11-26T09:17:51.983Z,1.60
2018-11-26T09:20:19.711Z,1.80
2018-11-26T09:22:47.413Z,1.60
2018-11-26T09:25:15.177Z,1.73
2018-11-26T09:27:42.850Z,1.77
2018-11-26T09:30:13.069Z,1.20
2018-11-26T09:32:41.090Z,1.90
2018-11-26T09:35:09.744Z,1.80
2018-11-26T09:37:37.364Z,1.50
2018-11-26T09:40:05.674Z,1.37
2018-11-26T09:42:33.482Z,1.53
2018-11-26T09:45:01.256Z,1.07
2018-11-26T09:47:29.122Z,1.30
2018-11-26T09:49:56.985Z,1.30
2018-11-26T09:52:24.889Z,1.50
2018-11-26T09:54:52.552Z,2.33
2018-11-26T09:57:20.250Z,1.30
2018-11-26T09:59:48.136Z,1.50
2018-11-26T10:02:15.776Z,1.17
2018-11-26T10:04:43.864Z,1.87
2018-11-26T10:07:11.603Z,1.67
2018-11-26T10:09:39.580Z,1.60
2018-11-26T10:12:07.827Z,1.70
2018-11-26T10:14:35.588Z,1.50
2018-11-26T10:17:03.513Z,1.60
2018-11-26T10:19:31.496Z,1.80
2018-11-26T10:21:59.462Z,1.77
2018-11-26T10:24:27.355Z,1.27
2018-11-26T10:26:56.079Z,1.47
2018-11-26T10:29:23.807Z,2.80
2018-11-26T10:31:51.692Z,1.23
2018-11-26T10:34:19.983Z,1.30
2018-11-26T10:36:47.732Z,1.27
2018-11-26T10:39:15.523Z,0.97
2018-11-26T10:41:43.423Z,2.03
2018-11-26T10:44:11.424Z,1.30
2018-11-26T10:46:39.168Z,1.77
2018-11-26T10:49:07.177Z,1.30
2018-11-26T10:51:35.202Z,1.83
2018-11-26T10:54:02.812Z,1.10
2018-11-26T10:56:30.487Z,1.00
2018-11-26T10:58:58.200Z,1.30
2018-11-26T11:01:31.325Z,1.00
2018-11-26T11:03:58.915Z,1.20
2018-11-26T11:06:26.535Z,1.10
2018-11-26T11:08:54.308Z,0.97
2018-11-26T11:11:23.376Z,1.10
2018-11-26T11:13:50.300Z,1.00
2018-11-26T11:16:18.277Z,1.10
2018-11-26T11:18:46.108Z,1.67
2018-11-26T11:21:13.985Z,1.60
2018-11-26T11:23:42.196Z,1.23
2018-11-26T11:26:10.104Z,1.10
2018-11-26T11:28:38.160Z,1.10
2018-11-26T11:31:06.177Z,1.73
2018-11-26T11:33:34.025Z,1.20
2018-11-26T11:36:01.960Z,1.70
2018-11-26T11:38:29.630Z,1.00
2018-11-26T11:40:57.326Z,1.70
2018-11-26T11:43:24.944Z,1.30
2018-11-26T11:45:52.502Z,1.07
2018-11-26T11:48:20.148Z,1.07
2018-11-26T11:50:47.741Z,1.10
2018-11-26T11:53:15.508Z,0.90
2018-11-26T11:55:43.197Z,1.30
2018-11-26T11:58:11.023Z,1.30
2018-11-26T12:00:39.849Z,1.13
2018-11-26T12:03:14.824Z,0.93
2018-11-26T12:05:42.717Z,1.83
2018-11-26T12:08:10.380Z,1.80
2018-11-26T12:10:37.942Z,1.70
2018-11-26T12:13:06.303Z,3.10
2018-11-26T12:15:33.973Z,2.27
2018-11-26T12:18:01.665Z,1.70
2018-11-26T12:20:29.295Z,1.73
2018-11-26T12:22:56.971Z,1.40
2018-11-26T12:25:24.859Z,1.50
2018-11-26T12:27:52.595Z,1.80
2018-11-26T12:30:21.854Z,1.20
2018-11-26T12:32:49.660Z,1.40
2018-11-26T12:35:17.387Z,1.60
2018-11-26T12:37:44.969Z,1.17
2018-11-26T12:40:13.415Z,1.30
2018-11-26T12:42:41.194Z,1.47
2018-11-26T12:45:11.797Z,1.03
2018-11-26T12:47:40.261Z,1.60
2018-11-26T12:50:08.280Z,1.73
2018-11-26T12:52:36.021Z,1.80
2018-11-26T12:55:03.644Z,1.60
2018-11-26T12:57:31.262Z,1.60
2018-11-26T12:59:58.877Z,1.43
2018-11-26T13:02:26.663Z,1.53
2018-11-26T13:04:54.713Z,1.47
2018-11-26T13:07:22.321Z,1.60
2018-11-26T13:09:49.986Z,1.40
2018-11-26T13:12:17.700Z,2.17
2018-11-26T13:14:45.529Z,1.40
2018-11-26T13:17:13.292Z,1.03
2018-11-26T13:19:40.835Z,1.00
2018-11-26T13:22:08.479Z,1.10
2018-11-26T13:24:36.172Z,1.50
2018-11-26T13:27:03.754Z,1.20
2018-11-26T13:29:31.573Z,1.20
2018-11-26T13:31:59.296Z,1.57
2018-11-26T13:34:26.934Z,0.93
2018-11-26T13:36:54.633Z,1.53
2018-11-26T13:39:22.344Z,1.00
2018-11-26T13:41:50.009Z,0.83
2018-11-26T13:44:17.670Z,1.07
2018-11-26T13:46:45.351Z,1.30
2018-11-26T13:49:13.047Z,1.20
2018-11-26T13:51:40.691Z,1.20
2018-11-26T13:54:08.476Z,1.50
2018-11-26T13:56:36.243Z,1.23
2018-11-26T13:59:03.883Z,1.20
2018-11-26T14:01:31.443Z,1.60
2018-11-26T14:03:59.184Z,1.33
2018-11-26T14:06:26.988Z,1.37
2018-11-26T14:08:54.681Z,1.47
2018-11-26T14:11:22.328Z,1.63
2018-11-26T14:13:49.921Z,2.13
2018-11-26T14:16:17.548Z,1.37
2018-11-26T14:18:45.148Z,1.50
2018-11-26T14:21:12.805Z,1.40
2018-11-26T14:23:40.436Z,1.60
2018-11-26T14:26:08.184Z,1.20
2018-11-26T14:28:35.941Z,1.43
2018-11-26T14:31:03.736Z,1.47
2018-11-26T14:33:31.627Z,1.07
2018-11-26T14:35:59.517Z,2.33
2018-11-26T14:38:27.207Z,1.00
2018-11-26T14:40:55.022Z,1.10
2018-11-26T14:43:22.823Z,1.67
2018-11-26T14:45:50.473Z,1.43
2018-11-26T14:48:18.200Z,1.53
2018-11-26T14:50:45.736Z,1.37
2018-11-26T14:53:15.127Z,1.67
2018-11-26T14:55:42.746Z,1.13
2018-11-26T14:58:11.667Z,1.57
2018-11-26T15:00:39.341Z,2.10
2018-11-26T15:03:07.226Z,2.10
2018-11-26T15:05:34.908Z,1.50
2018-11-26T15:08:02.539Z,1.77
2018-11-26T15:10:30.175Z,1.73
2018-11-26T15:12:57.745Z,1.93
2018-11-26T15:15:26.317Z,2.80
2018-11-26T15:17:53.877Z,1.70
2018-11-26T15:20:22.190Z,2.20
2018-11-26T15:22:50.184Z,1.70
2018-11-26T15:25:18.500Z,1.73
2018-11-26T15:27:46.063Z,1.97
2018-11-26T15:30:15.028Z,1.43
2018-11-26T15:32:42.603Z,1.80
2018-11-26T15:35:11.160Z,2.50
2018-11-26T15:37:38.815Z,1.97
2018-11-26T15:40:06.805Z,1.70
2018-11-26T15:42:34.613Z,1.20
2018-11-26T15:45:02.262Z,1.50
2018-11-26T15:47:29.984Z,1.20
2018-11-26T15:49:57.635Z,1.27
2018-11-26T15:52:25.265Z,2.00
2018-11-26T15:54:52.891Z,1.63
2018-11-26T15:57:20.671Z,2.00
2018-11-26T15:59:49.596Z,1.57
2018-11-26T16:02:17.265Z,1.83
2018-11-26T16:04:44.948Z,1.60
2018-11-26T16:07:12.582Z,1.80
2018-11-26T16:09:40.374Z,2.40
2018-11-26T16:12:11.237Z,2.00
2018-11-26T16:14:35.701Z,2.00
2018-11-26T16:17:03.315Z,1.90
2018-11-26T16:19:32.971Z,1.80
2018-11-26T16:22:00.636Z,1.70
2018-11-26T16:24:28.241Z,2.03
2018-11-26T16:26:56.050Z,2.13
2018-11-26T16:29:23.706Z,2.40
2018-11-26T16:31:51.559Z,2.37
2018-11-26T16:34:19.135Z,2.40
2018-11-26T16:36:46.729Z,3.13
2018-11-26T16:39:14.410Z,3.17
2018-11-26T16:41:42.732Z,5.30
2018-11-26T16:44:12.562Z,3.40
2018-11-26T16:46:40.105Z,3.40
2018-11-26T16:49:07.716Z,2.60
2018-11-26T16:51:35.278Z,3.30
2018-11-26T16:54:02.937Z,3.53
2018-11-26T16:56:30.650Z,5.20
2018-11-26T16:58:58.515Z,2.97
2018-11-26T17:01:26.160Z,4.33
2018-11-26T17:03:53.786Z,2.47
2018-11-26T17:06:21.385Z,4.00
2018-11-26T17:08:49.017Z,5.10
2018-11-26T17:11:16.644Z,3.50
2018-11-26T17:13:44.229Z,5.63
2018-11-26T17:16:11.811Z,4.70
2018-11-26T17:18:39.404Z,2.57
2018-11-26T17:21:07.025Z,2.37
2018-11-26T17:23:34.660Z,2.13
2018-11-26T17:26:02.372Z,2.70
2018-11-26T17:28:29.918Z,2.97
2018-11-26T17:30:57.603Z,3.80
2018-11-26T17:33:25.213Z,2.50
2018-11-26T17:35:53.089Z,2.83
2018-11-26T17:38:20.674Z,2.53
2018-11-26T17:40:48.252Z,2.70
2018-11-26T17:43:16.064Z,2.80
2018-11-26T17:45:43.689Z,2.43
2018-11-26T17:48:11.299Z,2.53
2018-11-26T17:50:39.970Z,2.80
2018-11-26T17:53:08.612Z,3.27
2018-11-26T17:56:07.068Z,2.93
2018-11-26T17:58:34.781Z,3.37
2018-11-26T18:01:03.805Z,2.83
2018-11-26T18:03:31.378Z,3.67
2018-11-26T18:05:59.010Z,3.00
2018-11-26T18:08:26.817Z,3.03
2018-11-26T18:10:54.448Z,3.20
2018-11-26T18:13:22.889Z,3.10
2018-11-26T18:15:50.557Z,3.00
2018-11-26T18:18:18.595Z,3.33
2018-11-26T18:20:46.528Z,2.97
2018-11-26T18:23:14.244Z,3.30
2018-11-26T18:25:42.207Z,4.00
2018-11-26T18:28:10.350Z,3.20
2018-11-26T18:30:41.663Z,3.17
2018-11-26T18:33:09.343Z,2.90
2018-11-26T18:35:37.194Z,3.27
2018-11-26T18:38:05.251Z,3.33
2018-11-26T18:40:32.801Z,3.50
2018-11-26T18:43:00.383Z,4.50
2018-11-26T18:45:27.953Z,4.07
2018-11-26T18:47:55.601Z,4.73
2018-11-26T18:50:23.180Z,4.03
2018-11-26T18:52:51.038Z,3.50
2018-11-26T18:55:18.947Z,3.60
2018-11-26T18:57:46.601Z,3.53
2018-11-26T19:00:16.386Z,3.20
2018-11-26T19:02:44.050Z,3.67
2018-11-26T19:05:12.123Z,3.13
2018-11-26T19:07:39.790Z,2.80
2018-11-26T19:10:11.222Z,3.17
2018-11-26T19:12:38.924Z,3.00
2018-11-26T19:15:08.893Z,3.10
2018-11-26T19:17:36.528Z,3.57
2018-11-26T19:20:04.336Z,3.27
2018-11-26T19:22:32.128Z,3.53
2018-11-26T19:24:59.849Z,3.70
2018-11-26T19:27:27.608Z,3.10
2018-11-26T19:29:55.339Z,2.93
2018-11-26T19:32:23.027Z,2.97
2018-11-26T19:34:50.704Z,2.80
2018-11-26T19:37:18.361Z,3.30
2018-11-26T19:39:46.020Z,3.20
2018-11-26T19:42:13.705Z,3.27
2018-11-26T19:44:41.500Z,3.30
2018-11-26T19:47:09.222Z,3.73
2018-11-26T19:49:36.981Z,4.10
2018-11-26T19:52:04.735Z,3.50
2018-11-26T19:54:32.402Z,4.33
2018-11-26T19:57:00.083Z,3.47
2018-11-26T19:59:27.829Z,3.50
2018-11-26T20:01:56.369Z,3.73
2018-11-26T20:04:34.198Z,3.80
2018-11-26T20:07:01.902Z,3.20
2018-11-26T20:09:29.538Z,3.03
2018-11-26T20:11:57.134Z,3.27
2018-11-26T20:14:25.952Z,3.87
2018-11-26T20:16:52.617Z,4.00
2018-11-26T20:19:20.220Z,3.20
2018-11-26T20:21:47.867Z,3.70
2018-11-26T20:24:15.545Z,2.80
2018-11-26T20:26:43.255Z,3.00
2018-11-26T20:29:11.016Z,4.07
2018-11-26T20:31:38.760Z,3.40
2018-11-26T20:34:06.967Z,3.20
2018-11-26T20:36:34.632Z,2.50
2018-11-26T20:39:02.580Z,3.20
2018-11-26T20:41:30.233Z,3.40
2018-11-26T20:43:57.935Z,3.53
2018-11-26T20:46:25.681Z,3.30
2018-11-26T20:48:53.356Z,3.13
2018-11-26T20:51:21.024Z,2.40
2018-11-26T20:53:48.687Z,3.07
2018-11-26T20:56:16.936Z,2.53
2018-11-26T20:58:48.723Z,2.87
2018-11-26T21:01:20.843Z,3.07
2018-11-26T21:03:50.913Z,2.80
2018-11-26T21:06:21.527Z,2.63
2018-11-26T21:08:49.456Z,2.40
2018-11-26T21:11:17.398Z,1.97
2018-11-26T21:13:45.645Z,1.90
2018-11-26T21:16:13.600Z,2.23
2018-11-26T21:18:41.394Z,2.00
2018-11-26T21:21:09.561Z,2.27
2018-11-26T21:23:41.624Z,1.93
2018-11-26T21:26:09.540Z,1.80
2018-11-26T21:28:37.255Z,1.90
2018-11-26T21:31:05.060Z,2.37
2018-11-26T21:33:32.785Z,1.93
2018-11-26T21:36:00.752Z,2.03
2018-11-26T21:38:28.470Z,1.63
2018-11-26T21:40:56.355Z,1.43
2018-11-26T21:43:24.128Z,1.90
2018-11-26T21:45:53.130Z,1.60
2018-11-26T21:48:21.431Z,1.53
2018-11-26T21:50:49.249Z,2.90
2018-11-26T21:53:17.224Z,2.13
2018-11-26T21:55:45.032Z,1.87
2018-11-26T21:58:12.827Z,2.03
2018-11-26T22:00:40.921Z,2.37
2018-11-26T22:03:10.980Z,1.70
2018-11-26T22:05:42.087Z,2.20
2018-11-26T22:08:10.519Z,2.53
2018-11-26T22:10:38.936Z,2.07
2018-11-26T22:13:14.820Z,1.87
2018-11-26T22:15:43.546Z,1.97
2018-11-26T22:18:11.504Z,2.37
2018-11-26T22:20:39.986Z,2.30
2018-11-26T22:23:08.686Z,2.00
2018-11-26T22:25:37.095Z,2.20
2018-11-26T22:28:05.660Z,2.00
2018-11-26T22:30:33.684Z,1.73
2018-11-26T22:33:01.376Z,1.70
2018-11-26T22:35:29.263Z,1.63
2018-11-26T22:37:57.065Z,1.90
2018-11-26T22:40:25.762Z,1.80
2018-11-26T22:42:53.685Z,2.50
2018-11-26T22:45:23.105Z,1.73
2018-11-26T22:47:51.420Z,1.73
2018-11-26T22:50:19.519Z,1.87
2018-11-26T22:52:47.472Z,2.70
2018-11-26T22:55:15.509Z,2.20
2018-11-26T22:57:43.731Z,3.60
2018-11-26T23:00:15.336Z,4.00
2018-11-26T23:02:43.216Z,2.77
2018-11-26T23:05:11.102Z,2.60
2018-11-26T23:07:39.368Z,2.30
2018-11-26T23:10:08.289Z,2.23
2018-11-26T23:12:35.997Z,2.50
2018-11-26T23:15:03.979Z,2.63
2018-11-26T23:17:31.804Z,2.40
2018-11-26T23:19:59.494Z,2.50
2018-11-26T23:22:27.202Z,3.27
